sensor_id;sensor_type;location;lat;lon;timestamp;P1;durP1;ratioP1;P2;durP2;ratioP2
66163;SDS011;52962;51.088;3.096;2023-06-19T00:02:25;3.83;;;3.63;;
66163;SDS011;52962;51.088;3.096;2023-06-19T00:04:53;4.38;;;4.07;;
66163;SDS011;52962;51.088;3.096;2023-06-19T00:07:23;4.03;;;3.63;;
66163;SDS011;52962;51.088;3.096;2023-06-19T00:09:51;4.03;;;3.72;;
66163;SDS011;52962;51.088;3.096;2023-06-19T00:12:19;4.05;;;3.75;;
66163;SDS011;52962;51.088;3.096;2023-06-19T00:14:47;3.67;;;3.40;;
66163;SDS011;52962;51.088;3.096;2023-06-19T00:17:15;3.30;;;3.00;;
66163;SDS011;52962;51.088;3.096;2023-06-19T00:19:44;4.40;;;4.10;;
66163;SDS011;52962;51.088;3.096;2023-06-19T00:22:13;4.45;;;4.15;;
66163;SDS011;52962;51.088;3.096;2023-06-19T00:24:42;4.78;;;4.38;;
66163;SDS011;52962;51.088;3.096;2023-06-19T00:27:11;6.10;;;5.50;;
66163;SDS011;52962;51.088;3.096;2023-06-19T00:29:39;4.53;;;4.13;;
66163;SDS011;52962;51.088;3.096;2023-06-19T00:32:07;5.32;;;4.82;;
66163;SDS011;52962;51.088;3.096;2023-06-19T00:34:36;5.80;;;5.30;;
66163;SDS011;52962;51.088;3.096;2023-06-19T00:37:04;7.65;;;4.97;;
66163;SDS011;52962;51.088;3.096;2023-06-19T00:39:36;4.88;;;4.38;;
66163;SDS011;52962;51.088;3.096;2023-06-19T00:42:06;5.22;;;4.80;;
66163;SDS011;52962;51.088;3.096;2023-06-19T00:44:34;4.85;;;4.45;;
66163;SDS011;52962;51.088;3.096;2023-06-19T00:47:02;3.67;;;3.42;;
66163;SDS011;52962;51.088;3.096;2023-06-19T00:49:32;3.80;;;3.50;;
66163;SDS011;52962;51.088;3.096;2023-06-19T00:52:00;6.18;;;2.20;;
66163;SDS011;52962;51.088;3.096;2023-06-19T00:54:29;3.10;;;2.90;;
66163;SDS011;52962;51.088;3.096;2023-06-19T00:57:00;2.15;;;1.85;;
66163;SDS011;52962;51.088;3.096;2023-06-19T00:59:29;3.10;;;2.83;;
66163;SDS011;52962;51.088;3.096;2023-06-19T01:02:00;2.67;;;1.95;;
66163;SDS011;52962;51.088;3.096;2023-06-19T01:04:29;1.92;;;1.83;;
66163;SDS011;52962;51.088;3.096;2023-06-19T01:06:59;2.53;;;2.00;;
66163;SDS011;52962;51.088;3.096;2023-06-19T01:09:38;2.13;;;2.03;;
66163;SDS011;52962;51.088;3.096;2023-06-19T01:12:13;2.60;;;2.38;;
66163;SDS011;52962;51.088;3.096;2023-06-19T01:14:50;1.95;;;1.85;;
66163;SDS011;52962;51.088;3.096;2023-06-19T01:17:22;1.80;;;1.70;;
66163;SDS011;52962;51.088;3.096;2023-06-19T01:19:53;1.52;;;1.48;;
66163;SDS011;52962;51.088;3.096;2023-06-19T01:22:24;3.03;;;1.30;;
66163;SDS011;52962;51.088;3.096;2023-06-19T01:24:53;1.38;;;1.23;;
66163;SDS011;52962;51.088;3.096;2023-06-19T01:27:22;1.00;;;1.00;;
66163;SDS011;52962;51.088;3.096;2023-06-19T01:29:52;1.60;;;1.50;;
66163;SDS011;52962;51.088;3.096;2023-06-19T01:32:22;1.45;;;1.40;;
66163;SDS011;52962;51.088;3.096;2023-06-19T01:34:57;1.70;;;1.60;;
66163;SDS011;52962;51.088;3.096;2023-06-19T01:37:29;1.60;;;1.45;;
66163;SDS011;52962;51.088;3.096;2023-06-19T01:40:00;1.77;;;1.67;;
66163;SDS011;52962;51.088;3.096;2023-06-19T01:42:32;2.45;;;1.98;;
66163;SDS011;52962;51.088;3.096;2023-06-19T01:45:02;1.52;;;1.42;;
66163;SDS011;52962;51.088;3.096;2023-06-19T01:47:31;2.25;;;2.15;;
66163;SDS011;52962;51.088;3.096;2023-06-19T01:49:59;1.73;;;1.63;;
66163;SDS011;52962;51.088;3.096;2023-06-19T01:52:30;3.03;;;2.83;;
66163;SDS011;52962;51.088;3.096;2023-06-19T01:54:58;3.72;;;2.33;;
66163;SDS011;52962;51.088;3.096;2023-06-19T01:57:26;2.63;;;2.53;;
66163;SDS011;52962;51.088;3.096;2023-06-19T01:59:54;2.53;;;2.38;;
66163;SDS011;52962;51.088;3.096;2023-06-19T02:04:50;2.63;;;2.53;;
66163;SDS011;52962;51.088;3.096;2023-06-19T02:07:18;3.25;;;2.97;;
66163;SDS011;52962;51.088;3.096;2023-06-19T02:09:48;3.08;;;2.88;;
66163;SDS011;52962;51.088;3.096;2023-06-19T02:12:16;3.05;;;2.85;;
66163;SDS011;52962;51.088;3.096;2023-06-19T02:14:44;3.75;;;2.92;;
66163;SDS011;52962;51.088;3.096;2023-06-19T02:17:13;4.15;;;3.88;;
66163;SDS011;52962;51.088;3.096;2023-06-19T02:19:41;3.92;;;3.58;;
66163;SDS011;52962;51.088;3.096;2023-06-19T02:22:09;4.40;;;4.00;;
66163;SDS011;52962;51.088;3.096;2023-06-19T02:24:38;4.05;;;3.67;;
66163;SDS011;52962;51.088;3.096;2023-06-19T02:27:08;4.03;;;3.15;;
66163;SDS011;52962;51.088;3.096;2023-06-19T02:29:36;4.28;;;3.88;;
66163;SDS011;52962;51.088;3.096;2023-06-19T02:32:05;3.85;;;3.55;;
66163;SDS011;52962;51.088;3.096;2023-06-19T02:34:33;3.90;;;3.58;;
66163;SDS011;52962;51.088;3.096;2023-06-19T02:37:04;3.83;;;3.53;;
66163;SDS011;52962;51.088;3.096;2023-06-19T02:39:36;5.32;;;4.93;;
66163;SDS011;52962;51.088;3.096;2023-06-19T02:42:04;3.90;;;3.50;;
66163;SDS011;52962;51.088;3.096;2023-06-19T02:44:34;4.15;;;3.80;;
66163;SDS011;52962;51.088;3.096;2023-06-19T02:47:03;4.50;;;4.18;;
66163;SDS011;52962;51.088;3.096;2023-06-19T02:49:31;4.78;;;4.43;;
66163;SDS011;52962;51.088;3.096;2023-06-19T02:51:59;6.35;;;5.82;;
66163;SDS011;52962;51.088;3.096;2023-06-19T02:54:28;5.60;;;5.15;;
66163;SDS011;52962;51.088;3.096;2023-06-19T02:56:58;5.82;;;5.43;;
66163;SDS011;52962;51.088;3.096;2023-06-19T02:59:27;6.22;;;5.72;;
66163;SDS011;52962;51.088;3.096;2023-06-19T03:04:24;6.55;;;5.90;;
66163;SDS011;52962;51.088;3.096;2023-06-19T03:06:55;6.65;;;6.15;;
66163;SDS011;52962;51.088;3.096;2023-06-19T03:11:51;7.70;;;6.63;;
66163;SDS011;52962;51.088;3.096;2023-06-19T03:14:19;6.13;;;5.57;;
66163;SDS011;52962;51.088;3.096;2023-06-19T03:16:48;5.22;;;4.43;;
66163;SDS011;52962;51.088;3.096;2023-06-19T03:19:17;6.65;;;6.15;;
66163;SDS011;52962;51.088;3.096;2023-06-19T03:21:45;6.68;;;5.95;;
66163;SDS011;52962;51.088;3.096;2023-06-19T03:24:16;6.95;;;5.80;;
66163;SDS011;52962;51.088;3.096;2023-06-19T03:26:44;6.40;;;5.75;;
66163;SDS011;52962;51.088;3.096;2023-06-19T03:29:13;6.10;;;5.50;;
66163;SDS011;52962;51.088;3.096;2023-06-19T03:32:04;4.72;;;4.38;;
66163;SDS011;52962;51.088;3.096;2023-06-19T03:34:35;6.85;;;6.03;;
66163;SDS011;52962;51.088;3.096;2023-06-19T03:37:06;6.10;;;5.60;;
66163;SDS011;52962;51.088;3.096;2023-06-19T03:39:35;5.32;;;4.80;;
66163;SDS011;52962;51.088;3.096;2023-06-19T03:42:07;5.18;;;4.70;;
66163;SDS011;52962;51.088;3.096;2023-06-19T03:44:36;5.88;;;5.35;;
66163;SDS011;52962;51.088;3.096;2023-06-19T03:47:04;5.95;;;5.45;;
66163;SDS011;52962;51.088;3.096;2023-06-19T03:49:33;5.93;;;5.43;;
66163;SDS011;52962;51.088;3.096;2023-06-19T03:52:03;6.50;;;5.32;;
66163;SDS011;52962;51.088;3.096;2023-06-19T03:54:33;6.47;;;5.53;;
66163;SDS011;52962;51.088;3.096;2023-06-19T03:57:02;4.68;;;4.38;;
66163;SDS011;52962;51.088;3.096;2023-06-19T03:59:30;5.50;;;5.10;;
66163;SDS011;52962;51.088;3.096;2023-06-19T04:04:26;7.78;;;4.85;;
66163;SDS011;52962;51.088;3.096;2023-06-19T04:06:55;7.22;;;5.47;;
66163;SDS011;52962;51.088;3.096;2023-06-19T04:09:25;6.78;;;5.80;;
66163;SDS011;52962;51.088;3.096;2023-06-19T04:11:53;8.77;;;6.20;;
66163;SDS011;52962;51.088;3.096;2023-06-19T04:14:22;5.35;;;4.90;;
66163;SDS011;52962;51.088;3.096;2023-06-19T04:16:52;5.47;;;4.97;;
66163;SDS011;52962;51.088;3.096;2023-06-19T04:19:20;4.43;;;4.03;;
66163;SDS011;52962;51.088;3.096;2023-06-19T04:21:48;5.13;;;4.60;;
66163;SDS011;52962;51.088;3.096;2023-06-19T04:24:17;9.18;;;4.32;;
66163;SDS011;52962;51.088;3.096;2023-06-19T04:26:47;5.90;;;5.43;;
66163;SDS011;52962;51.088;3.096;2023-06-19T04:29:15;5.70;;;5.20;;
66163;SDS011;52962;51.088;3.096;2023-06-19T04:31:44;6.22;;;5.65;;
66163;SDS011;52962;51.088;3.096;2023-06-19T04:34:15;5.10;;;4.57;;
66163;SDS011;52962;51.088;3.096;2023-06-19T04:36:47;6.20;;;5.68;;
66163;SDS011;52962;51.088;3.096;2023-06-19T04:39:15;5.15;;;4.75;;
66163;SDS011;52962;51.088;3.096;2023-06-19T04:41:44;5.28;;;4.88;;
66163;SDS011;52962;51.088;3.096;2023-06-19T04:44:13;4.78;;;4.22;;
66163;SDS011;52962;51.088;3.096;2023-06-19T04:46:42;5.70;;;5.28;;
66163;SDS011;52962;51.088;3.096;2023-06-19T04:49:11;5.63;;;5.22;;
66163;SDS011;52962;51.088;3.096;2023-06-19T04:51:40;5.55;;;5.05;;
66163;SDS011;52962;51.088;3.096;2023-06-19T04:54:09;5.85;;;5.05;;
66163;SDS011;52962;51.088;3.096;2023-06-19T04:59:05;8.07;;;3.85;;
66163;SDS011;52962;51.088;3.096;2023-06-19T05:01:34;4.32;;;3.80;;
66163;SDS011;52962;51.088;3.096;2023-06-19T05:04:02;4.53;;;4.03;;
66163;SDS011;52962;51.088;3.096;2023-06-19T05:06:31;5.88;;;5.38;;
66163;SDS011;52962;51.088;3.096;2023-06-19T05:08:59;5.75;;;5.25;;
66163;SDS011;52962;51.088;3.096;2023-06-19T05:11:27;6.68;;;5.45;;
66163;SDS011;52962;51.088;3.096;2023-06-19T05:13:56;6.35;;;5.75;;
66163;SDS011;52962;51.088;3.096;2023-06-19T05:16:24;5.03;;;4.65;;
66163;SDS011;52962;51.088;3.096;2023-06-19T05:18:53;6.50;;;5.85;;
66163;SDS011;52962;51.088;3.096;2023-06-19T05:21:21;4.13;;;3.83;;
66163;SDS011;52962;51.088;3.096;2023-06-19T05:26:19;5.05;;;4.68;;
66163;SDS011;52962;51.088;3.096;2023-06-19T05:28:49;5.68;;;5.22;;
66163;SDS011;52962;51.088;3.096;2023-06-19T05:31:17;5.20;;;4.80;;
66163;SDS011;52962;51.088;3.096;2023-06-19T05:33:46;5.32;;;4.78;;
66163;SDS011;52962;51.088;3.096;2023-06-19T05:36:15;6.60;;;5.63;;
66163;SDS011;52962;51.088;3.096;2023-06-19T05:38:43;5.80;;;4.97;;
66163;SDS011;52962;51.088;3.096;2023-06-19T05:41:13;5.25;;;4.85;;
66163;SDS011;52962;51.088;3.096;2023-06-19T05:43:42;4.90;;;4.45;;
66163;SDS011;52962;51.088;3.096;2023-06-19T05:46:10;4.85;;;4.50;;
66163;SDS011;52962;51.088;3.096;2023-06-19T05:48:38;4.97;;;4.53;;
66163;SDS011;52962;51.088;3.096;2023-06-19T05:51:07;4.90;;;4.40;;
66163;SDS011;52962;51.088;3.096;2023-06-19T05:56:05;5.25;;;4.63;;
66163;SDS011;52962;51.088;3.096;2023-06-19T05:58:33;5.65;;;4.60;;
66163;SDS011;52962;51.088;3.096;2023-06-19T06:01:01;4.82;;;4.38;;
66163;SDS011;52962;51.088;3.096;2023-06-19T06:03:29;5.38;;;3.95;;
66163;SDS011;52962;51.088;3.096;2023-06-19T06:08:29;4.35;;;3.95;;
66163;SDS011;52962;51.088;3.096;2023-06-19T06:10:59;4.28;;;3.88;;
66163;SDS011;52962;51.088;3.096;2023-06-19T06:13:27;4.50;;;4.20;;
66163;SDS011;52962;51.088;3.096;2023-06-19T06:15:55;5.45;;;4.95;;
66163;SDS011;52962;51.088;3.096;2023-06-19T06:18:23;5.18;;;4.68;;
66163;SDS011;52962;51.088;3.096;2023-06-19T06:20:51;3.67;;;3.38;;
66163;SDS011;52962;51.088;3.096;2023-06-19T06:23:20;5.03;;;4.53;;
66163;SDS011;52962;51.088;3.096;2023-06-19T06:25:48;5.07;;;3.67;;
66163;SDS011;52962;51.088;3.096;2023-06-19T06:28:18;6.85;;;5.15;;
66163;SDS011;52962;51.088;3.096;2023-06-19T06:30:46;4.60;;;4.22;;
66163;SDS011;52962;51.088;3.096;2023-06-19T06:33:14;5.75;;;4.55;;
66163;SDS011;52962;51.088;3.096;2023-06-19T06:35:43;3.40;;;3.20;;
66163;SDS011;52962;51.088;3.096;2023-06-19T06:38:11;4.53;;;3.97;;
66163;SDS011;52962;51.088;3.096;2023-06-19T06:40:39;4.85;;;4.45;;
66163;SDS011;52962;51.088;3.096;2023-06-19T06:43:08;3.63;;;3.33;;
66163;SDS011;52962;51.088;3.096;2023-06-19T06:45:38;6.07;;;4.07;;
66163;SDS011;52962;51.088;3.096;2023-06-19T06:48:09;4.50;;;4.10;;
66163;SDS011;52962;51.088;3.096;2023-06-19T06:50:37;4.60;;;4.22;;
66163;SDS011;52962;51.088;3.096;2023-06-19T06:53:05;4.38;;;3.85;;
66163;SDS011;52962;51.088;3.096;2023-06-19T06:55:33;4.25;;;3.95;;
66163;SDS011;52962;51.088;3.096;2023-06-19T06:58:02;4.78;;;3.53;;
66163;SDS011;52962;51.088;3.096;2023-06-19T07:00:31;5.10;;;4.63;;
66163;SDS011;52962;51.088;3.096;2023-06-19T07:03:01;4.80;;;4.43;;
66163;SDS011;52962;51.088;3.096;2023-06-19T07:05:29;5.15;;;4.75;;
66163;SDS011;52962;51.088;3.096;2023-06-19T07:07:58;4.63;;;4.28;;
66163;SDS011;52962;51.088;3.096;2023-06-19T07:10:26;4.47;;;3.95;;
66163;SDS011;52962;51.088;3.096;2023-06-19T07:12:57;5.00;;;4.60;;
66163;SDS011;52962;51.088;3.096;2023-06-19T07:15:25;3.75;;;3.45;;
66163;SDS011;52962;51.088;3.096;2023-06-19T07:17:53;4.97;;;4.47;;
66163;SDS011;52962;51.088;3.096;2023-06-19T07:20:23;4.93;;;4.43;;
66163;SDS011;52962;51.088;3.096;2023-06-19T07:22:51;5.57;;;4.72;;
66163;SDS011;52962;51.088;3.096;2023-06-19T07:25:22;3.92;;;3.47;;
66163;SDS011;52962;51.088;3.096;2023-06-19T07:27:51;5.70;;;5.13;;
66163;SDS011;52962;51.088;3.096;2023-06-19T07:30:20;4.25;;;3.85;;
66163;SDS011;52962;51.088;3.096;2023-06-19T07:32:48;3.72;;;3.47;;
66163;SDS011;52962;51.088;3.096;2023-06-19T07:35:17;5.57;;;4.38;;
66163;SDS011;52962;51.088;3.096;2023-06-19T07:37:46;3.42;;;3.15;;
66163;SDS011;52962;51.088;3.096;2023-06-19T07:40:14;4.97;;;4.57;;
66163;SDS011;52962;51.088;3.096;2023-06-19T07:42:42;4.47;;;3.00;;
66163;SDS011;52962;51.088;3.096;2023-06-19T07:45:11;4.88;;;4.35;;
66163;SDS011;52962;51.088;3.096;2023-06-19T07:47:40;4.32;;;3.92;;
66163;SDS011;52962;51.088;3.096;2023-06-19T07:50:09;5.25;;;3.95;;
66163;SDS011;52962;51.088;3.096;2023-06-19T07:52:37;3.42;;;3.15;;
66163;SDS011;52962;51.088;3.096;2023-06-19T07:55:07;4.00;;;3.70;;
66163;SDS011;52962;51.088;3.096;2023-06-19T07:57:36;4.30;;;3.85;;
66163;SDS011;52962;51.088;3.096;2023-06-19T08:00:05;4.47;;;4.07;;
66163;SDS011;52962;51.088;3.096;2023-06-19T08:02:38;4.30;;;3.90;;
66163;SDS011;52962;51.088;3.096;2023-06-19T08:05:07;4.72;;;3.95;;
66163;SDS011;52962;51.088;3.096;2023-06-19T08:07:36;5.13;;;4.63;;
66163;SDS011;52962;51.088;3.096;2023-06-19T08:10:05;5.55;;;4.57;;
66163;SDS011;52962;51.088;3.096;2023-06-19T08:12:54;3.38;;;3.17;;
66163;SDS011;52962;51.088;3.096;2023-06-19T08:15:22;4.07;;;3.70;;
66163;SDS011;52962;51.088;3.096;2023-06-19T08:17:50;5.47;;;5.13;;
66163;SDS011;52962;51.088;3.096;2023-06-19T08:20:19;5.00;;;4.50;;
66163;SDS011;52962;51.088;3.096;2023-06-19T08:22:48;4.60;;;4.28;;
66163;SDS011;52962;51.088;3.096;2023-06-19T08:25:16;4.65;;;4.28;;
66163;SDS011;52962;51.088;3.096;2023-06-19T08:27:44;4.80;;;4.40;;
66163;SDS011;52962;51.088;3.096;2023-06-19T08:30:14;4.78;;;4.10;;
66163;SDS011;52962;51.088;3.096;2023-06-19T08:32:43;5.15;;;4.75;;
66163;SDS011;52962;51.088;3.096;2023-06-19T08:35:11;4.47;;;4.07;;
66163;SDS011;52962;51.088;3.096;2023-06-19T08:37:39;4.93;;;4.43;;
66163;SDS011;52962;51.088;3.096;2023-06-19T08:40:08;4.43;;;4.03;;
66163;SDS011;52962;51.088;3.096;2023-06-19T08:42:37;4.70;;;4.25;;
66163;SDS011;52962;51.088;3.096;2023-06-19T08:45:07;4.20;;;3.90;;
66163;SDS011;52962;51.088;3.096;2023-06-19T08:47:40;3.67;;;3.47;;
66163;SDS011;52962;51.088;3.096;2023-06-19T08:50:08;4.32;;;3.95;;
66163;SDS011;52962;51.088;3.096;2023-06-19T08:52:36;4.18;;;3.88;;
66163;SDS011;52962;51.088;3.096;2023-06-19T08:55:06;4.05;;;3.65;;
66163;SDS011;52962;51.088;3.096;2023-06-19T08:57:35;4.80;;;4.40;;
66163;SDS011;52962;51.088;3.096;2023-06-19T09:00:05;4.15;;;3.58;;
66163;SDS011;52962;51.088;3.096;2023-06-19T09:02:43;4.03;;;3.63;;
66163;SDS011;52962;51.088;3.096;2023-06-19T09:05:26;4.45;;;4.05;;
66163;SDS011;52962;51.088;3.096;2023-06-19T09:07:54;4.03;;;3.55;;
66163;SDS011;52962;51.088;3.096;2023-06-19T09:10:23;4.43;;;3.97;;
66163;SDS011;52962;51.088;3.096;2023-06-19T09:12:56;5.20;;;4.10;;
66163;SDS011;52962;51.088;3.096;2023-06-19T09:15:29;4.18;;;3.78;;
66163;SDS011;52962;51.088;3.096;2023-06-19T09:18:02;5.70;;;4.07;;
66163;SDS011;52962;51.088;3.096;2023-06-19T09:20:32;3.92;;;3.67;;
66163;SDS011;52962;51.088;3.096;2023-06-19T09:23:01;4.63;;;4.22;;
66163;SDS011;52962;51.088;3.096;2023-06-19T09:25:29;3.28;;;3.08;;
66163;SDS011;52962;51.088;3.096;2023-06-19T09:27:57;3.75;;;3.40;;
66163;SDS011;52962;51.088;3.096;2023-06-19T09:30:26;3.80;;;3.47;;
66163;SDS011;52962;51.088;3.096;2023-06-19T09:32:54;3.70;;;3.20;;
66163;SDS011;52962;51.088;3.096;2023-06-19T09:35:23;4.30;;;4.00;;
66163;SDS011;52962;51.088;3.096;2023-06-19T09:37:57;4.43;;;3.92;;
66163;SDS011;52962;51.088;3.096;2023-06-19T09:40:25;4.22;;;3.92;;
66163;SDS011;52962;51.088;3.096;2023-06-19T09:42:54;3.55;;;3.20;;
66163;SDS011;52962;51.088;3.096;2023-06-19T09:45:27;3.50;;;2.95;;
66163;SDS011;52962;51.088;3.096;2023-06-19T09:47:58;3.53;;;3.03;;
66163;SDS011;52962;51.088;3.096;2023-06-19T09:50:45;4.57;;;3.60;;
66163;SDS011;52962;51.088;3.096;2023-06-19T09:53:16;3.17;;;2.40;;
66163;SDS011;52962;51.088;3.096;2023-06-19T09:55:46;4.93;;;3.60;;
66163;SDS011;52962;51.088;3.096;2023-06-19T09:58:17;3.88;;;3.35;;
66163;SDS011;52962;51.088;3.096;2023-06-19T10:00:46;3.70;;;3.17;;
66163;SDS011;52962;51.088;3.096;2023-06-19T10:03:17;4.03;;;3.63;;
66163;SDS011;52962;51.088;3.096;2023-06-19T10:05:47;4.78;;;4.28;;
66163;SDS011;52962;51.088;3.096;2023-06-19T10:08:27;6.55;;;3.50;;
66163;SDS011;52962;51.088;3.096;2023-06-19T10:10:57;3.58;;;3.28;;
66163;SDS011;52962;51.088;3.096;2023-06-19T10:13:31;5.47;;;3.53;;
66163;SDS011;52962;51.088;3.096;2023-06-19T10:16:01;4.10;;;3.75;;
66163;SDS011;52962;51.088;3.096;2023-06-19T10:18:31;3.75;;;3.45;;
66163;SDS011;52962;51.088;3.096;2023-06-19T10:21:01;3.67;;;3.47;;
66163;SDS011;52962;51.088;3.096;2023-06-19T10:23:29;2.75;;;2.55;;
66163;SDS011;52962;51.088;3.096;2023-06-19T10:26:05;3.55;;;3.25;;
66163;SDS011;52962;51.088;3.096;2023-06-19T10:28:34;3.88;;;3.58;;
66163;SDS011;52962;51.088;3.096;2023-06-19T10:31:03;3.50;;;3.08;;
66163;SDS011;52962;51.088;3.096;2023-06-19T10:33:32;3.20;;;3.00;;
66163;SDS011;52962;51.088;3.096;2023-06-19T10:36:12;3.55;;;3.35;;
66163;SDS011;52962;51.088;3.096;2023-06-19T10:38:42;4.53;;;4.22;;
66163;SDS011;52962;51.088;3.096;2023-06-19T10:41:16;3.70;;;3.40;;
66163;SDS011;52962;51.088;3.096;2023-06-19T10:43:52;2.45;;;2.25;;
66163;SDS011;52962;51.088;3.096;2023-06-19T10:46:21;3.67;;;3.47;;
66163;SDS011;52962;51.088;3.096;2023-06-19T10:48:50;4.38;;;4.00;;
66163;SDS011;52962;51.088;3.096;2023-06-19T10:51:24;3.47;;;3.17;;
66163;SDS011;52962;51.088;3.096;2023-06-19T10:53:53;4.20;;;3.78;;
66163;SDS011;52962;51.088;3.096;2023-06-19T10:56:21;2.60;;;2.40;;
66163;SDS011;52962;51.088;3.096;2023-06-19T10:58:56;3.47;;;3.28;;
66163;SDS011;52962;51.088;3.096;2023-06-19T11:01:31;5.00;;;4.50;;
66163;SDS011;52962;51.088;3.096;2023-06-19T11:04:03;4.53;;;4.13;;
66163;SDS011;52962;51.088;3.096;2023-06-19T11:06:34;6.88;;;4.55;;
66163;SDS011;52962;51.088;3.096;2023-06-19T11:09:03;4.05;;;3.65;;
66163;SDS011;52962;51.088;3.096;2023-06-19T11:11:35;3.38;;;2.83;;
66163;SDS011;52962;51.088;3.096;2023-06-19T11:14:04;4.05;;;3.75;;
66163;SDS011;52962;51.088;3.096;2023-06-19T11:16:33;3.92;;;3.63;;
66163;SDS011;52962;51.088;3.096;2023-06-19T11:19:03;3.63;;;3.42;;
66163;SDS011;52962;51.088;3.096;2023-06-19T11:21:31;4.03;;;3.63;;
66163;SDS011;52962;51.088;3.096;2023-06-19T11:24:09;3.72;;;3.42;;
66163;SDS011;52962;51.088;3.096;2023-06-19T11:26:40;3.70;;;3.40;;
66163;SDS011;52962;51.088;3.096;2023-06-19T11:29:15;3.78;;;3.47;;
66163;SDS011;52962;51.088;3.096;2023-06-19T11:31:44;4.80;;;4.40;;
66163;SDS011;52962;51.088;3.096;2023-06-19T11:34:14;3.63;;;3.35;;
66163;SDS011;52962;51.088;3.096;2023-06-19T11:36:43;4.55;;;4.22;;
66163;SDS011;52962;51.088;3.096;2023-06-19T11:39:15;4.85;;;4.45;;
66163;SDS011;52962;51.088;3.096;2023-06-19T11:41:44;3.22;;;3.00;;
66163;SDS011;52962;51.088;3.096;2023-06-19T11:44:12;3.97;;;3.67;;
66163;SDS011;52962;51.088;3.096;2023-06-19T11:46:41;3.67;;;3.47;;
66163;SDS011;52962;51.088;3.096;2023-06-19T11:49:10;5.47;;;4.22;;
66163;SDS011;52962;51.088;3.096;2023-06-19T11:51:40;4.80;;;3.95;;
66163;SDS011;52962;51.088;3.096;2023-06-19T11:54:09;7.85;;;3.40;;
66163;SDS011;52962;51.088;3.096;2023-06-19T11:56:39;3.70;;;3.20;;
66163;SDS011;52962;51.088;3.096;2023-06-19T11:59:08;4.40;;;4.00;;
66163;SDS011;52962;51.088;3.096;2023-06-19T12:01:36;3.40;;;3.20;;
66163;SDS011;52962;51.088;3.096;2023-06-19T12:04:06;3.30;;;3.03;;
66163;SDS011;52962;51.088;3.096;2023-06-19T12:06:34;5.53;;;3.55;;
66163;SDS011;52962;51.088;3.096;2023-06-19T12:09:04;3.95;;;3.72;;
66163;SDS011;52962;51.088;3.096;2023-06-19T12:11:32;4.20;;;3.80;;
66163;SDS011;52962;51.088;3.096;2023-06-19T12:14:02;4.22;;;3.45;;
66163;SDS011;52962;51.088;3.096;2023-06-19T12:16:30;3.88;;;3.65;;
66163;SDS011;52962;51.088;3.096;2023-06-19T12:18:58;4.10;;;3.88;;
66163;SDS011;52962;51.088;3.096;2023-06-19T12:21:27;4.03;;;3.60;;
66163;SDS011;52962;51.088;3.096;2023-06-19T12:24:03;3.45;;;3.25;;
66163;SDS011;52962;51.088;3.096;2023-06-19T12:26:32;4.05;;;3.75;;
66163;SDS011;52962;51.088;3.096;2023-06-19T12:29:05;3.58;;;3.28;;
66163;SDS011;52962;51.088;3.096;2023-06-19T12:31:34;4.60;;;4.30;;
66163;SDS011;52962;51.088;3.096;2023-06-19T12:34:03;4.03;;;3.63;;
66163;SDS011;52962;51.088;3.096;2023-06-19T12:36:52;3.95;;;3.38;;
66163;SDS011;52962;51.088;3.096;2023-06-19T12:39:21;3.80;;;3.60;;
66163;SDS011;52962;51.088;3.096;2023-06-19T12:41:49;3.78;;;3.58;;
66163;SDS011;52962;51.088;3.096;2023-06-19T12:44:20;2.20;;;2.03;;
66163;SDS011;52962;51.088;3.096;2023-06-19T12:46:49;3.97;;;3.55;;
66163;SDS011;52962;51.088;3.096;2023-06-19T12:49:17;3.00;;;2.80;;
66163;SDS011;52962;51.088;3.096;2023-06-19T12:51:46;4.00;;;3.70;;
66163;SDS011;52962;51.088;3.096;2023-06-19T12:54:17;2.35;;;2.25;;
66163;SDS011;52962;51.088;3.096;2023-06-19T12:56:46;2.95;;;2.75;;
66163;SDS011;52962;51.088;3.096;2023-06-19T12:59:14;3.88;;;3.53;;
66163;SDS011;52962;51.088;3.096;2023-06-19T13:01:44;3.67;;;2.97;;
66163;SDS011;52962;51.088;3.096;2023-06-19T13:04:12;2.75;;;2.38;;
66163;SDS011;52962;51.088;3.096;2023-06-19T13:06:41;2.80;;;2.60;;
66163;SDS011;52962;51.088;3.096;2023-06-19T13:09:10;3.35;;;3.15;;
66163;SDS011;52962;51.088;3.096;2023-06-19T13:11:38;3.97;;;2.80;;
66163;SDS011;52962;51.088;3.096;2023-06-19T13:14:06;2.80;;;2.60;;
66163;SDS011;52962;51.088;3.096;2023-06-19T13:16:34;3.75;;;3.45;;
66163;SDS011;52962;51.088;3.096;2023-06-19T13:19:07;2.50;;;2.33;;
66163;SDS011;52962;51.088;3.096;2023-06-19T13:21:35;2.70;;;2.50;;
66163;SDS011;52962;51.088;3.096;2023-06-19T13:24:04;2.92;;;2.60;;
66163;SDS011;52962;51.088;3.096;2023-06-19T13:26:32;2.83;;;2.67;;
66163;SDS011;52962;51.088;3.096;2023-06-19T13:29:01;3.38;;;3.13;;
66163;SDS011;52962;51.088;3.096;2023-06-19T13:31:29;3.53;;;3.22;;
66163;SDS011;52962;51.088;3.096;2023-06-19T13:33:57;2.33;;;2.22;;
66163;SDS011;52962;51.088;3.096;2023-06-19T13:36:27;2.63;;;2.42;;
66163;SDS011;52962;51.088;3.096;2023-06-19T13:38:55;4.18;;;2.70;;
66163;SDS011;52962;51.088;3.096;2023-06-19T13:41:24;2.33;;;2.13;;
66163;SDS011;52962;51.088;3.096;2023-06-19T13:43:53;3.60;;;2.85;;
66163;SDS011;52962;51.088;3.096;2023-06-19T13:46:21;2.45;;;2.25;;
66163;SDS011;52962;51.088;3.096;2023-06-19T13:48:50;1.73;;;1.63;;
66163;SDS011;52962;51.088;3.096;2023-06-19T13:51:19;3.10;;;2.90;;
66163;SDS011;52962;51.088;3.096;2023-06-19T13:53:50;2.95;;;2.75;;
66163;SDS011;52962;51.088;3.096;2023-06-19T13:56:19;4.22;;;3.28;;
66163;SDS011;52962;51.088;3.096;2023-06-19T13:58:47;3.42;;;3.17;;
66163;SDS011;52962;51.088;3.096;2023-06-19T14:01:15;2.40;;;2.30;;
66163;SDS011;52962;51.088;3.096;2023-06-19T14:03:44;2.63;;;2.38;;
66163;SDS011;52962;51.088;3.096;2023-06-19T14:06:12;3.00;;;2.80;;
66163;SDS011;52962;51.088;3.096;2023-06-19T14:08:40;3.00;;;2.80;;
66163;SDS011;52962;51.088;3.096;2023-06-19T14:11:10;42.38;;;8.77;;
66163;SDS011;52962;51.088;3.096;2023-06-19T14:13:38;2.92;;;2.72;;
66163;SDS011;52962;51.088;3.096;2023-06-19T14:16:06;2.00;;;1.40;;
66163;SDS011;52962;51.088;3.096;2023-06-19T14:18:35;11.77;;;3.47;;
66163;SDS011;52962;51.088;3.096;2023-06-19T14:21:04;2.22;;;2.13;;
66163;SDS011;52962;51.088;3.096;2023-06-19T14:23:32;2.08;;;1.92;;
66163;SDS011;52962;51.088;3.096;2023-06-19T14:26:05;2.47;;;1.95;;
66163;SDS011;52962;51.088;3.096;2023-06-19T14:28:35;2.15;;;2.00;;
66163;SDS011;52962;51.088;3.096;2023-06-19T14:31:04;1.50;;;1.40;;
66163;SDS011;52962;51.088;3.096;2023-06-19T14:33:32;3.33;;;2.00;;
66163;SDS011;52962;51.088;3.096;2023-06-19T14:36:02;1.88;;;1.77;;
66163;SDS011;52962;51.088;3.096;2023-06-19T14:38:30;1.88;;;1.77;;
66163;SDS011;52962;51.088;3.096;2023-06-19T14:41:01;1.60;;;1.50;;
66163;SDS011;52962;51.088;3.096;2023-06-19T14:43:29;1.25;;;1.15;;
66163;SDS011;52962;51.088;3.096;2023-06-19T14:46:01;1.83;;;1.73;;
66163;SDS011;52962;51.088;3.096;2023-06-19T14:48:31;2.47;;;2.05;;
66163;SDS011;52962;51.088;3.096;2023-06-19T14:51:00;3.70;;;2.10;;
66163;SDS011;52962;51.088;3.096;2023-06-19T14:53:28;2.70;;;2.05;;
66163;SDS011;52962;51.088;3.096;2023-06-19T14:55:57;1.98;;;1.88;;
66163;SDS011;52962;51.088;3.096;2023-06-19T14:58:26;2.13;;;2.03;;
66163;SDS011;52962;51.088;3.096;2023-06-19T15:00:55;2.22;;;1.90;;
66163;SDS011;52962;51.088;3.096;2023-06-19T15:03:26;2.17;;;1.80;;
66163;SDS011;52962;51.088;3.096;2023-06-19T15:05:55;1.58;;;1.58;;
66163;SDS011;52962;51.088;3.096;2023-06-19T15:08:24;5.18;;;2.92;;
66163;SDS011;52962;51.088;3.096;2023-06-19T15:10:52;2.90;;;2.60;;
66163;SDS011;52962;51.088;3.096;2023-06-19T15:13:20;3.28;;;2.90;;
66163;SDS011;52962;51.088;3.096;2023-06-19T15:15:49;4.40;;;4.00;;
66163;SDS011;52962;51.088;3.096;2023-06-19T15:18:18;3.67;;;3.38;;
66163;SDS011;52962;51.088;3.096;2023-06-19T15:20:48;2.78;;;2.58;;
66163;SDS011;52962;51.088;3.096;2023-06-19T15:23:17;3.00;;;2.70;;